Česky Dansk Deutsch English Español Suomi Français Magyar Italiano Nederlands norsk Polski Português svenska Türkçe

 

Het Weer

Wadi Al Dawasser Airport (Saudi-Arabië)

20:00, 17 augustus 2016 (GMT)

NWNNE
WE
SWSSE
Home            
Wadi Al Dawasser Airport Bisha Najran Khamis Mushait Abha Al Baha Sharurah Sa'Ada / Sadah Dawadmi Al-Hazm Gizan Riyadh Taif King Khaled International Airport Marib Sana'A Makkah Sayun Jeddah Jeddah King Abdul Aziz International Airport Gassim Hodeidah Ataq

Om een weerknop op uw website of weblog te plaatsen, copieer onderstaande code en plak die in uw pagina. In het eerste vakje staat HTML-code, in het tweede vakje UBB-code.


Add to Google

Details

Wind speed:2 bf, 6 kn, 3.1 m/s, 6.9 miles/h, 11.1 km/h
Wind direction:ESE, 120°
Visibility:Greater than 10000 m, 10 km, 32800 ft, 6.2 miles
Clouds:Aufgelockert bewölkt at 3000 ft, 914 m
Temperature:35°C, 95°F
Gefühlte Temperatur:35°C, 95°F
Dew-point:16°C, 61°F
Atmospheric pressure:1003 hPa, 752.3 mmHg, 29.62 inHg, 0.990 atm
Relative humidity:32.3 %
METAR:OEWD 172000Z 12006KT 9999 SCT030 35/16 Q1003 NOSIG

Snelkoppelingen

Actuele weersinformatie van de hele wereld. Voeg locaties toe met het plus (+) symbool. Deze snelkoppelingen kunnen worden toegevoegd aan Google.

Lid van de Technetium groep

website free tracking
StatCounter NetStat W3C Validator

14-04-2021 09:22:51
astro.technetium.be money.technetium.be phote.technetium.be tafeltennistafel.technetium.be www.ligfiets.net